Time;durP1;ratioP1;P1;durP2;ratioP2;P2;SDS_P1;SDS_P2;PMS_P1;PMS_P2;Temp;Humidity;BMP_temperature;BMP_pressure;BME280_temperature;BME280_humidity;BME280_pressure;Samples;Min_cycle;Max_cycle;Signal;HPM_P1;HPM_P2
2023/06/20 00:01:25;;;;;;;7.4;6.1;;;;;;;17.68;100;936.5658;;;;
2023/06/20 00:03:53;;;;;;;9.2;6.5;;;;;;;17.58;100;936.4819;;;;
2023/06/20 00:06:19;;;;;;;7.3;6.5;;;;;;;17.56;100;936.3445;;;;
2023/06/20 00:08:45;;;;;;;9.2;6.7;;;;;;;17.65;100;936.3647;;;;
2023/06/20 00:11:10;;;;;;;8.4;6.5;;;;;;;17.47;100;936.2328;;;;
2023/06/20 00:13:39;;;;;;;7.1;6.2;;;;;;;17.53;100;936.2903;;;;
2023/06/20 00:16:02;;;;;;;7.7;6.7;;;;;;;17.54;100;936.2958;;;;
2023/06/20 00:18:31;;;;;;;8.4;7.2;;;;;;;17.42;100;936.3262;;;;
2023/06/20 00:20:55;;;;;;;7.6;6.7;;;;;;;17.37;100;936.3167;;;;
2023/06/20 00:23:21;;;;;;;6.9;6.2;;;;;;;17.32;100;936.4383;;;;
2023/06/20 00:25:46;;;;;;;8;7.2;;;;;;;17.17;100;936.3502;;;;
2023/06/20 00:28:16;;;;;;;8.5;7.2;;;;;;;17.17;100;936.317;;;;
2023/06/20 00:30:37;;;;;;;7.2;6.5;;;;;;;17.15;100;936.3617;;;;
2023/06/20 00:33:04;;;;;;;9;7.4;;;;;;;17.24;100;936.3708;;;;
2023/06/20 00:35:29;;;;;;;8.2;7.1;;;;;;;17.33;100;936.3351;;;;
2023/06/20 00:37:55;;;;;;;9.2;6.5;;;;;;;17.33;100;936.2957;;;;
2023/06/20 00:40:21;;;;;;;7.4;6.5;;;;;;;17.3;100;936.1917;;;;
2023/06/20 00:42:48;;;;;;;8.5;6.5;;;;;;;17.27;100;936.2654;;;;
2023/06/20 00:45:13;;;;;;;7.9;7.2;;;;;;;17.27;100;936.3315;;;;
2023/06/20 00:47:39;;;;;;;7.6;6.8;;;;;;;17.22;100;936.2769;;;;
2023/06/20 00:50:04;;;;;;;8.2;7.1;;;;;;;17.22;100;936.3331;;;;
2023/06/20 00:52:29;;;;;;;7.8;7;;;;;;;17.18;100;936.3853;;;;
2023/06/20 00:54:55;;;;;;;8.3;7.1;;;;;;;17.18;100;936.3329;;;;
2023/06/20 00:57:20;;;;;;;8.9;7.6;;;;;;;17.11;100;936.3569;;;;
2023/06/20 00:59:47;;;;;;;8.8;7.8;;;;;;;17.19;100;936.4189;;;;
2023/06/20 01:02:14;;;;;;;9.1;7.4;;;;;;;17.18;100;936.3683;;;;
2023/06/20 01:04:39;;;;;;;8.8;7.7;;;;;;;17.19;100;936.3979;;;;
2023/06/20 01:07:04;;;;;;;8.5;7.3;;;;;;;17.1;100;936.4213;;;;
2023/06/20 01:09:33;;;;;;;8.5;7;;;;;;;17.04;100;936.4063;;;;
2023/06/20 01:11:58;;;;;;;9.8;8.1;;;;;;;17.13;100;936.383;;;;
2023/06/20 01:14:23;;;;;;;8.8;7.9;;;;;;;17.1;100;936.3515;;;;
2023/06/20 01:16:48;;;;;;;8.6;7.3;;;;;;;17.15;100;936.3713;;;;
2023/06/20 01:19:14;;;;;;;9.2;7.6;;;;;;;17.1;100;936.3481;;;;
2023/06/20 01:21:38;;;;;;;8;6.7;;;;;;;17.17;100;936.433;;;;
2023/06/20 01:24:04;;;;;;;9.6;8;;;;;;;17.1;100;936.4133;;;;
2023/06/20 01:26:29;;;;;;;8.2;7.4;;;;;;;17.14;100;936.4623;;;;
2023/06/20 01:28:54;;;;;;;9.2;7.7;;;;;;;16.99;100;936.5575;;;;
2023/06/20 01:31:19;;;;;;;10.2;7.4;;;;;;;17.08;100;936.4741;;;;
2023/06/20 01:36:14;;;;;;;8.4;7;;;;;;;17.25;100;936.5959;;;;
2023/06/20 01:38:39;;;;;;;7.7;6.9;;;;;;;17.36;100;936.5808;;;;
2023/06/20 01:41:05;;;;;;;8.1;7.2;;;;;;;17.41;100;936.6355;;;;
2023/06/20 01:43:30;;;;;;;7.9;7.1;;;;;;;17.48;100;936.6941;;;;
2023/06/20 01:45:55;;;;;;;10;7.1;;;;;;;17.47;100;936.658;;;;
2023/06/20 01:48:20;;;;;;;7.9;6.8;;;;;;;17.36;100;936.7411;;;;
2023/06/20 01:50:46;;;;;;;7.7;6.9;;;;;;;17.46;100;936.6259;;;;
2023/06/20 01:53:12;;;;;;;9.1;7.1;;;;;;;17.63;100;936.5639;;;;
2023/06/20 01:55:37;;;;;;;8.3;7.2;;;;;;;17.54;100;936.4313;;;;
2023/06/20 01:58:02;;;;;;;8.2;7.2;;;;;;;17.63;100;936.4755;;;;
2023/06/20 02:00:29;;;;;;;8.5;7.2;;;;;;;17.75;100;936.4668;;;;
2023/06/20 02:02:54;;;;;;;7.4;6.7;;;;;;;17.82;100;936.4294;;;;
2023/06/20 02:05:20;;;;;;;7.6;6.8;;;;;;;17.88;100;936.4345;;;;
2023/06/20 02:07:45;;;;;;;8.8;7;;;;;;;17.75;100;936.4321;;;;
2023/06/20 02:10:14;;;;;;;8;7.2;;;;;;;17.94;100;936.4736;;;;
2023/06/20 02:12:39;;;;;;;8.4;7.3;;;;;;;17.86;100;936.4309;;;;
2023/06/20 02:15:06;;;;;;;8.8;7.1;;;;;;;17.77;100;936.4221;;;;
2023/06/20 02:17:31;;;;;;;8;6.8;;;;;;;17.84;100;936.3951;;;;
2023/06/20 02:19:57;;;;;;;8.8;7;;;;;;;17.95;99.87402;936.3751;;;;
2023/06/20 02:22:22;;;;;;;7.8;6.7;;;;;;;17.96;100;936.5538;;;;
2023/06/20 02:24:48;;;;;;;8.3;7.5;;;;;;;17.92;100;936.6625;;;;
2023/06/20 02:27:13;;;;;;;7.9;6.9;;;;;;;17.77;100;936.6775;;;;
2023/06/20 02:29:39;;;;;;;7.8;6.8;;;;;;;17.89;100;936.7977;;;;
2023/06/20 02:32:04;;;;;;;9.1;6.9;;;;;;;18.03;99.70508;936.8095;;;;
2023/06/20 02:34:29;;;;;;;8.5;6.8;;;;;;;18.11;99.72363;936.8231;;;;
2023/06/20 02:36:55;;;;;;;8.5;6.7;;;;;;;18.01;98.63477;936.9111;;;;
2023/06/20 02:39:20;;;;;;;8;7.2;;;;;;;18.05;98.56152;936.9105;;;;
2023/06/20 02:41:48;;;;;;;7.2;6.5;;;;;;;18.18;98.22949;936.9481;;;;
2023/06/20 02:44:13;;;;;;;8.2;7.4;;;;;;;17.91;99.9707;936.9045;;;;
2023/06/20 02:46:39;;;;;;;8.5;7.5;;;;;;;17.82;100;937.0438;;;;
2023/06/20 02:49:06;;;;;;;8.3;6.8;;;;;;;17.88;100;937.0524;;;;
2023/06/20 02:51:31;;;;;;;7.6;6.9;;;;;;;17.78;99.44043;937.0662;;;;
2023/06/20 02:53:57;;;;;;;9.1;6.7;;;;;;;17.86;98.63672;937.1285;;;;
2023/06/20 02:56:22;;;;;;;8.1;7;;;;;;;17.88;98.37402;937.2144;;;;
2023/06/20 02:58:47;;;;;;;9.1;7.6;;;;;;;17.76;99.73828;937.1739;;;;
2023/06/20 03:01:12;;;;;;;8.4;7.5;;;;;;;17.8;100;937.1794;;;;
2023/06/20 03:03:37;;;;;;;8.2;7.4;;;;;;;17.76;100;937.3436;;;;
2023/06/20 03:06:03;;;;;;;8.6;7.7;;;;;;;17.66;100;937.4799;;;;
2023/06/20 03:08:28;;;;;;;8.7;7.8;;;;;;;17.37;100;937.4323;;;;
2023/06/20 03:10:54;;;;;;;8.7;7.7;;;;;;;17.46;100;937.5421;;;;
2023/06/20 03:13:19;;;;;;;8.3;7.5;;;;;;;17.49;100;937.5447;;;;
2023/06/20 03:15:44;;;;;;;9.6;7.7;;;;;;;17.42;100;937.6142;;;;
2023/06/20 03:18:11;;;;;;;9;8.1;;;;;;;17.43;100;937.6415;;;;
2023/06/20 03:20:35;;;;;;;8.7;7.8;;;;;;;17.42;100;937.7223;;;;
2023/06/20 03:23:01;;;;;;;9.5;8.5;;;;;;;17.22;100;937.8083;;;;
2023/06/20 03:25:26;;;;;;;9.5;8.5;;;;;;;17.34;100;937.8217;;;;
2023/06/20 03:27:53;;;;;;;9.3;8.4;;;;;;;17.3;100;937.8152;;;;
2023/06/20 03:30:18;;;;;;;8.7;7.8;;;;;;;17.22;100;937.8557;;;;
2023/06/20 03:32:44;;;;;;;9.4;8.5;;;;;;;17.1;100;937.8647;;;;
2023/06/20 03:35:09;;;;;;;9;7.9;;;;;;;17.2;100;937.9952;;;;
2023/06/20 03:37:36;;;;;;;9.2;8.3;;;;;;;17.31;100;938.0248;;;;
2023/06/20 03:40:01;;;;;;;8.7;7.8;;;;;;;17.44;100;938.0181;;;;
2023/06/20 03:42:28;;;;;;;10.2;8;;;;;;;17.53;100;938.106;;;;
2023/06/20 03:44:53;;;;;;;9.7;8.2;;;;;;;17.49;100;938.1044;;;;
2023/06/20 03:47:18;;;;;;;10.1;9.1;;;;;;;17.39;100;938.1242;;;;
2023/06/20 03:49:43;;;;;;;9;8.1;;;;;;;17.52;100;938.1271;;;;
2023/06/20 03:52:10;;;;;;;9.1;8.2;;;;;;;17.4;100;938.1483;;;;
2023/06/20 03:54:37;;;;;;;10.6;8.8;;;;;;;17.27;100;938.2083;;;;
2023/06/20 03:57:02;;;;;;;11.2;9.2;;;;;;;17.43;100;938.2938;;;;
2023/06/20 03:59:27;;;;;;;10;8.7;;;;;;;17.53;100;938.3306;;;;
2023/06/20 04:02:31;;;;;;;9.9;8.5;;;;;;;17.64;100;938.3547;;;;
2023/06/20 04:04:57;;;;;;;8.8;7.9;;;;;;;17.77;99.125;938.4285;;;;
2023/06/20 04:07:21;;;;;;;9;8.1;;;;;;;17.74;98.60645;938.3616;;;;
2023/06/20 04:09:46;;;;;;;9.1;8.1;;;;;;;17.82;98.17383;938.3691;;;;
2023/06/20 04:12:11;;;;;;;10.8;8.5;;;;;;;17.82;99.06836;938.3923;;;;
2023/06/20 04:14:36;;;;;;;10.4;8.9;;;;;;;17.78;100;938.4363;;;;
2023/06/20 04:17:01;;;;;;;9;8.1;;;;;;;17.79;100;938.4411;;;;
2023/06/20 04:19:26;;;;;;;9.6;8.6;;;;;;;17.68;100;938.4124;;;;
2023/06/20 04:21:51;;;;;;;9.8;8.4;;;;;;;17.68;100;938.443;;;;
2023/06/20 04:24:17;;;;;;;9;8.1;;;;;;;17.79;100;938.5103;;;;
2023/06/20 04:26:42;;;;;;;8.6;7.7;;;;;;;17.72;100;938.5792;;;;
2023/06/20 04:29:08;;;;;;;9.1;8.2;;;;;;;17.61;100;938.6813;;;;
2023/06/20 04:31:34;;;;;;;9.3;8.3;;;;;;;17.64;100;938.7462;;;;
2023/06/20 04:33:59;;;;;;;10.7;8.7;;;;;;;17.56;100;938.8069;;;;
2023/06/20 04:36:26;;;;;;;8.9;7.9;;;;;;;17.54;100;938.8136;;;;
2023/06/20 04:38:50;;;;;;;11.1;8.4;;;;;;;17.69;100;938.7592;;;;
2023/06/20 04:41:15;;;;;;;8.6;7.7;;;;;;;17.78;100;938.7755;;;;
2023/06/20 04:43:44;;;;;;;9.6;8.3;;;;;;;17.86;100;938.817;;;;
2023/06/20 04:46:06;;;;;;;13.1;8;;;;;;;17.95;99.88574;938.8083;;;;
2023/06/20 04:48:35;;;;;;;9;8.1;;;;;;;17.83;100;938.7886;;;;
2023/06/20 04:50:59;;;;;;;8.1;7.3;;;;;;;17.96;99.66797;938.8129;;;;
2023/06/20 04:53:26;;;;;;;9.4;7.7;;;;;;;17.94;100;938.7922;;;;
2023/06/20 04:55:50;;;;;;;9.2;7.7;;;;;;;17.86;99.85645;938.7896;;;;
2023/06/20 04:58:17;;;;;;;9.1;7.7;;;;;;;17.93;99.88184;938.757;;;;
2023/06/20 05:00:42;;;;;;;9.3;7.6;;;;;;;18.12;99.55566;938.8005;;;;
2023/06/20 05:03:10;;;;;;;10.1;7.3;;;;;;;18.17;98.4248;938.8931;;;;
2023/06/20 05:05:35;;;;;;;8.4;7.6;;;;;;;18.18;98.06641;938.9188;;;;
2023/06/20 05:08:00;;;;;;;8.6;7;;;;;;;18.13;98.84668;938.9317;;;;
2023/06/20 05:10:25;;;;;;;7.6;6.9;;;;;;;18.23;97.9043;938.918;;;;
2023/06/20 05:12:51;;;;;;;8.1;7.1;;;;;;;18.19;98.32617;938.9185;;;;
2023/06/20 05:15:23;;;;;;;10.7;8;;;;;;;18.2;98.29395;938.9458;;;;
2023/06/20 05:17:41;;;;;;;8.3;7.5;;;;;;;18.21;98.50293;938.9423;;;;
2023/06/20 05:20:10;;;;;;;8.7;7.8;;;;;;;18.34;98.74414;938.9949;;;;
2023/06/20 05:22:35;;;;;;;8.8;7.3;;;;;;;18.37;98.35547;939.0822;;;;
2023/06/20 05:25:00;;;;;;;8.9;7.1;;;;;;;18.52;97.50391;939.0135;;;;
2023/06/20 05:27:25;;;;;;;9.1;7.2;;;;;;;18.42;97.91211;939.0305;;;;
2023/06/20 05:29:51;;;;;;;8.2;7.3;;;;;;;18.59;96.69141;939.0219;;;;
2023/06/20 05:32:16;;;;;;;7.7;6.6;;;;;;;18.62;96.14355;939.0206;;;;
2023/06/20 05:34:42;;;;;;;7.9;7.1;;;;;;;18.76;96.41699;938.9866;;;;
2023/06/20 05:37:35;;;;;;;14.2;8.1;;;;;;;18.77;95.83789;938.9339;;;;
2023/06/20 05:40:00;;;;;;;8.1;7;;;;;;;18.94;95.03711;938.9951;;;;
2023/06/20 05:42:25;;;;;;;8.3;6.6;;;;;;;19.26;95.30469;938.9579;;;;
2023/06/20 05:44:50;;;;;;;7.6;6.3;;;;;;;19.45;91.54492;938.9902;;;;
2023/06/20 05:47:17;;;;;;;6.7;6.1;;;;;;;19.23;89.77637;939.0087;;;;
2023/06/20 05:50:09;;;;;;;6.9;6.2;;;;;;;19.12;91.61719;939.0278;;;;
2023/06/20 05:53:17;;;;;;;11;7;;;;;;;19.07;90.59277;939.0137;;;;
2023/06/20 05:55:44;;;;;;;6.9;5.7;;;;;;;19.29;88.88086;938.9646;;;;
2023/06/20 05:58:09;;;;;;;6.8;6.1;;;;;;;19.45;87.43164;938.9773;;;;
2023/06/20 06:00:37;;;;;;;6.8;6.1;;;;;;;19.47;87.96094;938.9387;;;;
2023/06/20 06:03:02;;;;;;;7.1;6;;;;;;;19.48;88.68359;938.9363;;;;
2023/06/20 06:05:29;;;;;;;7.3;6.5;;;;;;;19.43;89.04785;938.9148;;;;
2023/06/20 06:07:54;;;;;;;8.5;6.4;;;;;;;19.47;89.74414;938.938;;;;
2023/06/20 06:10:19;;;;;;;7.8;6.7;;;;;;;19.59;89.94336;938.9113;;;;
2023/06/20 06:12:45;;;;;;;7.7;6.7;;;;;;;19.52;89.52246;938.835;;;;
2023/06/20 06:15:12;;;;;;;9.4;6.9;;;;;;;19.43;90.88867;938.8558;;;;
2023/06/20 06:17:34;;;;;;;8.2;7.2;;;;;;;19.5;91.87109;938.8088;;;;
2023/06/20 06:19:59;;;;;;;7.4;6.6;;;;;;;19.92;90.05762;938.813;;;;
2023/06/20 06:22:24;;;;;;;9.2;6.8;;;;;;;20.12;88.25293;938.7291;;;;
2023/06/20 06:24:53;;;;;;;7.3;6.5;;;;;;;20.31;87.94238;938.606;;;;
2023/06/20 06:27:18;;;;;;;7;6;;;;;;;20.59;86.25684;938.6278;;;;
2023/06/20 06:29:56;;;;;;;6.3;5.7;;;;;;;20.77;85.76563;938.6238;;;;
2023/06/20 06:32:21;;;;;;;9.9;6.3;;;;;;;20.73;85.45508;938.5762;;;;
2023/06/20 06:34:47;;;;;;;8.7;6.8;;;;;;;20.83;86.50098;938.6516;;;;
2023/06/20 06:37:14;;;;;;;6.9;6;;;;;;;20.82;86.74512;938.6733;;;;
2023/06/20 06:39:39;;;;;;;10.1;6.6;;;;;;;20.91;86.29492;938.662;;;;
2023/06/20 06:42:06;;;;;;;6.7;5.8;;;;;;;21.43;83.24707;938.6458;;;;
2023/06/20 06:44:31;;;;;;;6.2;5.6;;;;;;;22.03;80.66406;938.6339;;;;
2023/06/20 06:47:00;;;;;;;6.7;6;;;;;;;22.45;80.06055;938.5567;;;;
2023/06/20 06:49:54;;;;;;;6.7;5.9;;;;;;;23.22;78.18945;938.5022;;;;
2023/06/20 06:52:19;;;;;;;6;5;;;;;;;24.71;70.17383;938.4192;;;;
2023/06/20 06:54:44;;;;;;;5.4;4.9;;;;;;;25.64;66.18359;938.4515;;;;
2023/06/20 06:57:10;;;;;;;6.2;5.1;;;;;;;26.67;62.47461;938.46;;;;
2023/06/20 06:59:35;;;;;;;6.6;4.7;;;;;;;26.82;60.14941;938.4097;;;;
2023/06/20 07:02:00;;;;;;;5.4;4.9;;;;;;;27.01;58.9668;938.3365;;;;
2023/06/20 07:04:25;;;;;;;5.3;4.8;;;;;;;27.28;59.57129;938.4152;;;;
2023/06/20 07:06:50;;;;;;;5;4.5;;;;;;;28.05;56.07422;938.3345;;;;
2023/06/20 07:09:17;;;;;;;5.3;4.5;;;;;;;28.07;54.5791;938.2943;;;;
2023/06/20 07:11:42;;;;;;;5;4.4;;;;;;;28.95;55.00684;938.2913;;;;
2023/06/20 07:14:09;;;;;;;5.9;4.4;;;;;;;29.2;50.9043;938.2408;;;;
2023/06/20 07:16:34;;;;;;;4.9;4.4;;;;;;;29.98;49.86035;938.2087;;;;
2023/06/20 07:18:59;;;;;;;6.4;4.6;;;;;;;30.09;50.05078;938.1644;;;;
2023/06/20 07:21:24;;;;;;;5.6;4.5;;;;;;;30.82;48.23145;938.1097;;;;
2023/06/20 07:23:51;;;;;;;5.5;4.6;;;;;;;30.97;47.42188;938.0657;;;;
2023/06/20 07:26:16;;;;;;;4.7;4.2;;;;;;;30.47;48.16992;938.0422;;;;
2023/06/20 07:28:41;;;;;;;4.4;4;;;;;;;30.07;48.8916;938.0179;;;;
2023/06/20 07:31:06;;;;;;;5.4;4.6;;;;;;;30.14;48.46875;937.955;;;;
2023/06/20 07:33:33;;;;;;;4.1;3.7;;;;;;;30.47;47.65625;937.9551;;;;
2023/06/20 07:36:00;;;;;;;6.2;4.3;;;;;;;30.22;47.6416;937.9255;;;;
2023/06/20 07:38:25;;;;;;;5.5;4.3;;;;;;;30.63;45.65332;937.837;;;;
2023/06/20 07:40:50;;;;;;;5.6;4.6;;;;;;;31.02;45.16602;937.8282;;;;
2023/06/20 07:43:19;;;;;;;4.7;4.3;;;;;;;31.09;45.41309;937.7803;;;;
2023/06/20 07:45:42;;;;;;;4.5;4.1;;;;;;;31.55;44.53711;937.7458;;;;
2023/06/20 07:48:08;;;;;;;5.1;4.3;;;;;;;32.23;44.71191;937.7324;;;;
2023/06/20 07:50:33;;;;;;;4.4;4;;;;;;;33.18;42.82324;937.7536;;;;
2023/06/20 07:53:00;;;;;;;4.4;4;;;;;;;33.57;41.30859;937.6707;;;;
2023/06/20 07:55:26;;;;;;;4.3;3.7;;;;;;;33.34;40.38574;937.6508;;;;
2023/06/20 07:57:53;;;;;;;4.4;4;;;;;;;34;40.12012;937.6766;;;;
2023/06/20 08:00:16;;;;;;;4.1;3.8;;;;;;;32.73;38.85547;937.5747;;;;
2023/06/20 08:02:42;;;;;;;4.9;3.7;;;;;;;33.24;41.7959;937.5878;;;;
2023/06/20 08:05:08;;;;;;;4.6;4;;;;;;;33.38;38.94727;937.5421;;;;
2023/06/20 08:07:35;;;;;;;4.7;4;;;;;;;33.94;36.63574;937.4277;;;;
2023/06/20 08:10:00;;;;;;;4.4;4;;;;;;;34.21;38.8252;937.4088;;;;
2023/06/20 08:12:26;;;;;;;4.6;3.7;;;;;;;34.75;38.13574;937.4409;;;;
2023/06/20 08:14:51;;;;;;;4.5;4.1;;;;;;;34.01;35.75195;937.4417;;;;
2023/06/20 08:17:18;;;;;;;4.9;4;;;;;;;32.61;39.74609;937.3169;;;;
2023/06/20 08:19:43;;;;;;;4.3;3.9;;;;;;;34.06;40.31836;937.3346;;;;
2023/06/20 08:22:08;;;;;;;6.9;3.9;;;;;;;34.01;35.40234;937.2499;;;;
2023/06/20 08:24:33;;;;;;;5.3;3.9;;;;;;;33.45;37.52246;937.2073;;;;
2023/06/20 08:27:03;;;;;;;4.1;3.7;;;;;;;33.22;38.09277;937.2491;;;;
2023/06/20 08:29:26;;;;;;;4.6;4.1;;;;;;;34.87;36.27734;937.2428;;;;
2023/06/20 08:31:51;;;;;;;4.8;4;;;;;;;34.86;34.73242;937.1813;;;;
2023/06/20 08:34:16;;;;;;;4.7;4.2;;;;;;;34.39;35.15527;937.1699;;;;
2023/06/20 08:36:43;;;;;;;4.3;3.9;;;;;;;35.13;36.21191;937.0859;;;;
2023/06/20 08:39:07;;;;;;;4.3;3.9;;;;;;;35.55;38.06934;937.0463;;;;
2023/06/20 08:41:33;;;;;;;4.2;3.8;;;;;;;34.83;36.09277;936.9433;;;;
2023/06/20 08:47:34;;;;;;;4.4;4;;;;;;;33.18;37.41602;936.8024;;;;
2023/06/20 08:50:00;;;;;;;4.5;4.1;;;;;;;32.33;37.43066;936.7542;;;;
2023/06/20 08:52:25;;;;;;;3.9;3.6;;;;;;;33.4;34.15234;936.7279;;;;
2023/06/20 08:57:17;;;;;;;5;3.9;;;;;;;33.02;38.00391;936.6311;;;;
2023/06/20 08:59:40;;;;;;;4.6;3.8;;;;;;;33.93;36.70703;936.6384;;;;
2023/06/20 09:02:07;;;;;;;4.9;4.4;;;;;;;32.3;35.4375;936.5676;;;;
2023/06/20 09:04:31;;;;;;;4.2;3.8;;;;;;;32.43;36.80273;936.6291;;;;
2023/06/20 09:07:01;;;;;;;4.6;4;;;;;;;32.83;37.87988;936.58;;;;
2023/06/20 09:09:24;;;;;;;4.1;3.7;;;;;;;32.76;35.61719;936.5689;;;;
2023/06/20 09:11:49;;;;;;;5.8;3.9;;;;;;;32.52;37.07324;936.5781;;;;
2023/06/20 09:14:33;;;;;;;4.4;4;;;;;;;32.98;38.02344;936.5275;;;;
2023/06/20 09:16:59;;;;;;;4.8;4.2;;;;;;;33.29;38.31445;936.4995;;;;
2023/06/20 09:19:24;;;;;;;4.1;3.7;;;;;;;33.22;35.97754;936.5069;;;;
2023/06/20 09:21:59;;;;;;;5.7;4.2;;;;;;;33.39;37.19336;936.5173;;;;
2023/06/20 09:24:26;;;;;;;5.2;4.3;;;;;;;33.15;37.62988;936.4081;;;;
2023/06/20 09:26:51;;;;;;;6.4;4.3;;;;;;;33.69;39.06934;936.4603;;;;
2023/06/20 09:29:17;;;;;;;5.2;4.7;;;;;;;33.29;37.61719;936.4158;;;;
2023/06/20 09:31:43;;;;;;;5.2;4.2;;;;;;;33.36;39.2334;936.3563;;;;
2023/06/20 09:34:08;;;;;;;4.6;4.2;;;;;;;32.05;39.34863;936.3577;;;;
2023/06/20 09:36:34;;;;;;;6.4;4.6;;;;;;;31.6;39.76465;936.3121;;;;
2023/06/20 09:39:01;;;;;;;5.2;4.3;;;;;;;32.15;38.69824;936.3095;;;;
2023/06/20 09:41:26;;;;;;;5.5;3.9;;;;;;;32.31;36.03711;936.2645;;;;
2023/06/20 09:43:51;;;;;;;6;3.9;;;;;;;32.13;34.94336;936.2166;;;;
2023/06/20 09:46:17;;;;;;;5.7;4.2;;;;;;;32.07;35.87402;936.1508;;;;
2023/06/20 09:48:42;;;;;;;5.5;3.6;;;;;;;31.85;36.14453;936.1453;;;;
2023/06/20 09:51:07;;;;;;;5.9;3.7;;;;;;;31.91;39.07227;936.0939;;;;
2023/06/20 09:53:32;;;;;;;5.1;3.9;;;;;;;32.16;37.2002;936.0105;;;;
2023/06/20 09:55:57;;;;;;;9;4.4;;;;;;;32.03;36.67383;935.9794;;;;
2023/06/20 09:58:22;;;;;;;5.1;4;;;;;;;31.88;35.99121;935.9266;;;;
2023/06/20 10:00:47;;;;;;;6.6;3.8;;;;;;;31.64;36.22363;935.8621;;;;
2023/06/20 10:03:15;;;;;;;6.5;4.1;;;;;;;31.57;36.03906;935.8628;;;;
2023/06/20 10:05:40;;;;;;;5.9;3.9;;;;;;;31.71;35.62988;935.7676;;;;
2023/06/20 10:08:07;;;;;;;6;3.8;;;;;;;31.31;36.61621;935.7773;;;;
2023/06/20 10:10:37;;;;;;;6.3;4.5;;;;;;;31.43;37.63086;935.7522;;;;
2023/06/20 10:13:06;;;;;;;7.1;4.1;;;;;;;31.46;36.36426;935.7276;;;;
2023/06/20 10:15:31;;;;;;;7;4.5;;;;;;;31.74;39.77734;935.7656;;;;
2023/06/20 10:17:56;;;;;;;4.8;4.1;;;;;;;31.83;37.52051;935.6617;;;;
2023/06/20 10:20:22;;;;;;;7.9;3.9;;;;;;;31.93;35.91113;935.7156;;;;
2023/06/20 10:22:50;;;;;;;7;4.1;;;;;;;32.25;37.06348;935.704;;;;
2023/06/20 10:25:15;;;;;;;7.1;4.2;;;;;;;32.52;36.30566;935.6756;;;;
2023/06/20 10:27:43;;;;;;;10.4;4.4;;;;;;;32.79;39.34082;935.6277;;;;
2023/06/20 10:30:08;;;;;;;8.7;4;;;;;;;32.83;33.5459;935.6841;;;;
2023/06/20 10:32:33;;;;;;;7.3;3.8;;;;;;;33.06;33.98242;935.5678;;;;
2023/06/20 10:34:58;;;;;;;7.2;3.9;;;;;;;33.17;34.08691;935.5288;;;;
2023/06/20 10:37:23;;;;;;;6.7;4.5;;;;;;;33.17;33.28223;935.519;;;;
2023/06/20 10:39:49;;;;;;;8.4;4.2;;;;;;;33.24;34.05566;935.4501;;;;
2023/06/20 10:42:14;;;;;;;9.2;4.1;;;;;;;33.53;34.99121;935.4629;;;;
2023/06/20 10:44:39;;;;;;;8.8;4.6;;;;;;;33.44;34.73242;935.3817;;;;
2023/06/20 10:47:06;;;;;;;6.9;4.5;;;;;;;33.16;33.68945;935.3547;;;;
2023/06/20 10:50:03;;;;;;;5.1;4.6;;;;;;;33.09;35.11426;935.3463;;;;
2023/06/20 10:52:28;;;;;;;19.5;6.1;;;;;;;33.04;36.13184;935.2494;;;;
2023/06/20 10:54:54;;;;;;;7.2;4.4;;;;;;;32.78;39.02832;935.2375;;;;
2023/06/20 10:57:19;;;;;;;5.4;4.9;;;;;;;32.99;38.15723;935.2511;;;;
2023/06/20 10:59:47;;;;;;;6.1;4.6;;;;;;;33.34;37.42871;935.2004;;;;
2023/06/20 11:02:13;;;;;;;5.1;4.6;;;;;;;33.22;38.66895;935.1794;;;;
2023/06/20 11:05:16;;;;;;;8.4;5.1;;;;;;;33.09;40.98828;935.1548;;;;
2023/06/20 11:07:43;;;;;;;5.4;4.9;;;;;;;32.83;40.89258;935.0648;;;;
2023/06/20 11:10:08;;;;;;;6;4.8;;;;;;;33.35;36.7334;935.0192;;;;
2023/06/20 11:12:33;;;;;;;5.6;4.7;;;;;;;33.56;38.07227;934.9908;;;;
2023/06/20 11:14:58;;;;;;;7.5;4.6;;;;;;;33.73;38.96484;935.0003;;;;
2023/06/20 11:17:24;;;;;;;9.1;4.7;;;;;;;33.88;35.41602;934.9442;;;;
2023/06/20 11:19:50;;;;;;;6.1;4.5;;;;;;;33.96;35.44531;934.9044;;;;
2023/06/20 11:22:14;;;;;;;7.1;4.5;;;;;;;33.93;38.83789;934.8906;;;;
2023/06/20 11:24:39;;;;;;;9.1;4.8;;;;;;;34;37.74805;934.8706;;;;
2023/06/20 11:27:48;;;;;;;7.1;4.6;;;;;;;33.46;38.12402;934.8723;;;;
2023/06/20 11:30:16;;;;;;;6.9;5;;;;;;;33.96;35.22949;934.8042;;;;
2023/06/20 11:32:43;;;;;;;6.8;4.5;;;;;;;34.2;37.01855;934.7179;;;;
2023/06/20 11:35:08;;;;;;;5.4;4.5;;;;;;;33.29;38.0498;934.6917;;;;
2023/06/20 11:37:33;;;;;;;6.8;4.3;;;;;;;33.16;38.73633;934.6614;;;;
2023/06/20 11:39:58;;;;;;;6.5;4.7;;;;;;;33.08;38.02051;934.6568;;;;
2023/06/20 11:42:24;;;;;;;6.2;4.5;;;;;;;32.73;40.33203;934.6753;;;;
2023/06/20 11:44:50;;;;;;;6.7;4.7;;;;;;;33.22;38.87305;934.6578;;;;
2023/06/20 11:47:14;;;;;;;7.1;4.3;;;;;;;33.78;37.2373;934.6071;;;;
2023/06/20 11:49:39;;;;;;;8.1;4.7;;;;;;;34.2;34.7666;934.6484;;;;
2023/06/20 11:52:05;;;;;;;8.8;4.4;;;;;;;34.45;35.67676;934.6397;;;;
2023/06/20 11:54:30;;;;;;;7.1;4.6;;;;;;;34.38;35.53906;934.652;;;;
2023/06/20 11:56:55;;;;;;;9.2;4.6;;;;;;;34.15;36.21973;934.6072;;;;
2023/06/20 11:59:20;;;;;;;8.4;4.4;;;;;;;34.15;36.24316;934.6848;;;;
2023/06/20 12:01:47;;;;;;;6.2;4.3;;;;;;;33.96;38.33398;934.6317;;;;
2023/06/20 12:04:13;;;;;;;6.5;4.4;;;;;;;34.07;38.22363;934.6629;;;;
2023/06/20 12:06:38;;;;;;;7.7;4.5;;;;;;;33.89;38.55762;934.5626;;;;
2023/06/20 12:09:03;;;;;;;5.9;4.2;;;;;;;34.06;36.88574;934.5458;;;;
2023/06/20 12:11:30;;;;;;;5.2;4.4;;;;;;;34.15;37.38672;934.5427;;;;
2023/06/20 12:13:55;;;;;;;5.2;4.7;;;;;;;34.18;39.70215;934.5363;;;;
2023/06/20 12:16:21;;;;;;;6;4.5;;;;;;;34.39;38.02148;934.4481;;;;
2023/06/20 12:18:46;;;;;;;8;5;;;;;;;34.45;36.36426;934.4523;;;;
2023/06/20 12:21:12;;;;;;;7.2;5.1;;;;;;;34.4;37.10645;934.4285;;;;
2023/06/20 12:23:37;;;;;;;6.7;4.6;;;;;;;34.33;37.29395;934.44;;;;
2023/06/20 12:26:04;;;;;;;8.5;5.1;;;;;;;34.21;37.80176;934.4525;;;;
2023/06/20 12:28:30;;;;;;;5.8;4.5;;;;;;;34.39;35.87695;934.382;;;;
2023/06/20 12:30:56;;;;;;;7.4;4.8;;;;;;;34.41;36.45703;934.2925;;;;
2023/06/20 12:33:21;;;;;;;6.4;4;;;;;;;33.99;38.93945;934.4086;;;;
2023/06/20 12:35:47;;;;;;;6.2;4.5;;;;;;;34.28;36.50684;934.2977;;;;
2023/06/20 12:38:13;;;;;;;5.7;4;;;;;;;34.27;38.1084;934.3072;;;;
2023/06/20 12:40:39;;;;;;;6.6;4.8;;;;;;;34.01;37.50879;934.3109;;;;
2023/06/20 12:43:05;;;;;;;5;4;;;;;;;34.19;35.96973;934.2695;;;;
2023/06/20 12:45:30;;;;;;;5.1;4.1;;;;;;;33.98;38.14453;934.2274;;;;
2023/06/20 12:47:55;;;;;;;5.9;4.3;;;;;;;33.99;36.21875;934.2424;;;;
2023/06/20 12:50:20;;;;;;;5.2;4.2;;;;;;;34.44;37.0498;934.2313;;;;
2023/06/20 12:52:45;;;;;;;8.5;4.6;;;;;;;34.54;37.33496;934.2416;;;;
2023/06/20 12:55:10;;;;;;;7.7;4.1;;;;;;;34.62;34.4248;934.189;;;;
2023/06/20 12:57:38;;;;;;;6.7;4.2;;;;;;;34.67;36.36914;934.1967;;;;
2023/06/20 13:00:04;;;;;;;6.2;4;;;;;;;34.49;37.52246;934.1552;;;;
2023/06/20 13:02:28;;;;;;;5.7;4;;;;;;;34.74;34.5293;934.0759;;;;
2023/06/20 13:04:54;;;;;;;5.5;4.6;;;;;;;34.91;34.10938;934.07;;;;
2023/06/20 13:07:19;;;;;;;6.4;4.3;;;;;;;35.19;34.29883;934.0701;;;;
2023/06/20 13:09:46;;;;;;;7.3;4.1;;;;;;;35.37;33.05566;934.0093;;;;
2023/06/20 13:12:11;;;;;;;7.2;4.1;;;;;;;35.34;33.16309;933.998;;;;
2023/06/20 13:14:38;;;;;;;8.5;4.2;;;;;;;34.95;34.60547;933.9938;;;;
2023/06/20 13:17:03;;;;;;;7.4;4.4;;;;;;;34.66;35.11426;934.0117;;;;
2023/06/20 13:19:29;;;;;;;8;4.6;;;;;;;34.58;34.72266;933.9948;;;;
2023/06/20 13:21:54;;;;;;;6.6;4.2;;;;;;;34.59;34.3623;933.9728;;;;
2023/06/20 13:24:20;;;;;;;6.9;4.5;;;;;;;34.64;34.66699;933.9973;;;;
2023/06/20 13:26:45;;;;;;;5.9;3.9;;;;;;;34.31;34.17188;934.0048;;;;
2023/06/20 13:29:11;;;;;;;8.5;4.2;;;;;;;34.07;35.08105;933.988;;;;
2023/06/20 13:32:07;;;;;;;7;4.2;;;;;;;33.67;35.19434;933.9792;;;;
2023/06/20 13:34:32;;;;;;;6;4.2;;;;;;;33.45;37.52246;933.9738;;;;
2023/06/20 13:36:57;;;;;;;7;4.3;;;;;;;33.49;35.54199;933.9416;;;;
2023/06/20 13:41:47;;;;;;;10.1;4.5;;;;;;;33.48;36.07031;933.9425;;;;
2023/06/20 13:44:13;;;;;;;6.4;4.3;;;;;;;33.45;36.76465;933.9225;;;;
2023/06/20 13:46:38;;;;;;;6;4.3;;;;;;;33.37;35.0752;933.8585;;;;
2023/06/20 13:49:03;;;;;;;8.3;3.9;;;;;;;33.5;36.67285;933.9005;;;;
2023/06/20 13:51:30;;;;;;;9.4;3.8;;;;;;;33.55;34.98145;933.9026;;;;
2023/06/20 13:53:55;;;;;;;8.2;4.5;;;;;;;33.36;34.1377;933.8592;;;;
2023/06/20 13:56:20;;;;;;;10.8;4.2;;;;;;;33.4;35.53516;933.8805;;;;
2023/06/20 13:58:45;;;;;;;9.6;4.5;;;;;;;33.4;36.0752;933.8419;;;;
2023/06/20 14:01:13;;;;;;;5.4;4.2;;;;;;;33.72;34.34473;933.8398;;;;
2023/06/20 14:03:36;;;;;;;10.4;4.7;;;;;;;33.83;34.3291;933.8211;;;;
2023/06/20 14:06:02;;;;;;;10.8;4.9;;;;;;;33.95;35.0957;933.835;;;;
2023/06/20 14:08:27;;;;;;;8.8;4.9;;;;;;;34.07;34.68359;933.8073;;;;
2023/06/20 14:10:52;;;;;;;7.8;4.5;;;;;;;34.23;33.9375;933.7352;;;;
2023/06/20 14:13:18;;;;;;;6.8;4.7;;;;;;;34.06;34.12891;933.7475;;;;
2023/06/20 14:15:44;;;;;;;8.8;4.6;;;;;;;34.13;35.3623;933.7841;;;;
2023/06/20 14:18:36;;;;;;;7.3;4.4;;;;;;;33.95;34.92773;933.7039;;;;
2023/06/20 14:21:04;;;;;;;7.6;4;;;;;;;33.93;33.58984;933.7596;;;;
2023/06/20 14:23:29;;;;;;;8.1;4.1;;;;;;;33.72;33.94824;933.8365;;;;
2023/06/20 14:25:54;;;;;;;8.1;4.1;;;;;;;33.63;33.92871;933.7545;;;;
2023/06/20 14:28:51;;;;;;;6;3.8;;;;;;;33.6;36.0791;933.7896;;;;
2023/06/20 14:31:20;;;;;;;8.1;3.8;;;;;;;33.62;34.74512;933.795;;;;
2023/06/20 14:33:45;;;;;;;7.5;3.8;;;;;;;33.38;35.13672;933.7062;;;;
2023/06/20 14:36:12;;;;;;;7.6;4.1;;;;;;;33.31;34.96289;933.6277;;;;
2023/06/20 14:38:36;;;;;;;7.6;4.3;;;;;;;33.4;35.52246;933.695;;;;
2023/06/20 14:41:02;;;;;;;6.1;4.2;;;;;;;33.45;35.5752;933.7338;;;;
2023/06/20 14:43:29;;;;;;;7.7;4.5;;;;;;;33.2;37.05762;933.6852;;;;
2023/06/20 14:45:54;;;;;;;7.1;4.6;;;;;;;33.09;36.12305;933.6512;;;;
2023/06/20 14:48:21;;;;;;;9.5;4.1;;;;;;;33.16;36.00781;933.6841;;;;
2023/06/20 14:50:46;;;;;;;7.7;4.1;;;;;;;33.22;35.78516;933.6244;;;;